Esperantina, Brazil
Current Conditions -  °F | °C
As of 6:00 PM on Thursday 18 Dec 2014 (Local Time) from SBMA Reporting Station
Broken Clouds Broken Clouds  
Wind Chill: 82°   Ceiling: 9000
Heat Index: 91°   Visibility: 6mi
Dew Point: 77°   Wind: 3mph
Humidity: 84%   Direction: 30°NNE
Pressure: 29.77"   Gusts: NA
Location:  5.34°S, 48.51°W
Report Text: SBMA 182100Z 03003KT 9999 FEW020 BKN090 28/25 Q1008
Loading
Personal Weather Stations






























Interactive Weather Map New forecast layout! Learn more

10-Day Weather Forecast

Advertisements
Track Severe Weather on mobile